Gate, Washington
Current Conditions -  °F | °C
As of 8:15 AM on Friday 24 Oct 2014 (Local Time) from KCLS Reporting Station
Moderate Fog Moderate Fog  
Wind Chill: 45°   Ceiling: 400
Heat Index: 45°   Visibility: 0mi
Dew Point: 45°   Wind: 0mph
Humidity: 100%   Direction: NA
Pressure: 30.03"   Gusts: NA
Location:  46.7945°N, 123.146°W
Report Text: KCLS 241515Z AUTO 00000KT M1/4SM FG OVC004 07/07 A3003 RMK AO2
Loading
Personal Weather Stations






























Interactive Weather Map
Tropical Storm Tracking
New forecast layout! Learn more

10-Day Weather Forecast

Advertisements
Track Severe Weather on mobile